createdAt,value
2023-03-15T00:01:10.356Z,3.47
2023-03-15T00:05:15.368Z,5.60
2023-03-15T00:09:16.640Z,6.07
2023-03-15T00:13:19.686Z,7.13
2023-03-15T00:17:23.171Z,7.10
2023-03-15T00:21:24.831Z,6.03
2023-03-15T00:25:25.414Z,6.80
2023-03-15T00:29:25.940Z,10.27
2023-03-15T00:33:29.097Z,10.00
2023-03-15T00:37:29.759Z,14.40
2023-03-15T00:41:30.386Z,11.40
2023-03-15T00:45:32.937Z,9.70
2023-03-15T00:49:38.358Z,9.67
2023-03-15T00:53:44.050Z,8.57
2023-03-15T00:57:46.827Z,4.47
2023-03-15T01:01:47.525Z,9.30
2023-03-15T01:05:50.667Z,5.90
2023-03-15T01:09:51.221Z,7.47
2023-03-15T01:13:51.631Z,7.83
2023-03-15T01:17:51.997Z,7.33
2023-03-15T01:21:55.695Z,7.07
2023-03-15T01:25:56.190Z,5.80
2023-03-15T01:29:56.990Z,9.70
2023-03-15T01:33:57.992Z,8.40
2023-03-15T01:38:03.185Z,7.83
2023-03-15T01:42:06.483Z,7.53
2023-03-15T01:46:18.713Z,9.83
2023-03-15T01:50:20.124Z,11.67
2023-03-15T01:54:30.453Z,7.07
2023-03-15T01:58:33.077Z,9.90
2023-03-15T02:02:34.094Z,7.37
2023-03-15T02:06:35.959Z,11.03
2023-03-15T02:10:45.999Z,10.80
2023-03-15T02:14:49.126Z,8.47
2023-03-15T02:18:51.714Z,11.90
2023-03-15T02:22:59.946Z,7.10
2023-03-15T02:27:03.917Z,9.17
2023-03-15T02:31:07.593Z,8.43
2023-03-15T02:35:08.837Z,9.97
2023-03-15T02:39:19.714Z,7.17
2023-03-15T02:43:27.594Z,9.20
2023-03-15T02:47:38.738Z,9.80
2023-03-15T02:51:39.346Z,8.33
2023-03-15T02:55:39.926Z,8.53
2023-03-15T02:59:42.134Z,3.33
2023-03-15T03:03:47.676Z,6.03
2023-03-15T03:07:50.299Z,5.80
2023-03-15T03:11:51.262Z,7.83
2023-03-15T03:15:58.872Z,8.43
2023-03-15T03:20:08.063Z,8.60
2023-03-15T03:24:11.083Z,7.03
2023-03-15T03:28:11.334Z,7.77
2023-03-15T03:32:14.394Z,7.70
2023-03-15T03:36:18.342Z,8.47
2023-03-15T03:40:19.186Z,6.83
2023-03-15T03:44:19.658Z,13.47
2023-03-15T03:48:20.114Z,8.00
2023-03-15T03:52:24.106Z,5.97
2023-03-15T03:56:29.399Z,15.53
2023-03-15T04:00:32.496Z,8.03
2023-03-15T04:04:33.769Z,8.80
2023-03-15T04:08:37.418Z,10.63
2023-03-15T04:12:39.110Z,11.03
2023-03-15T04:16:41.454Z,11.53
2023-03-15T04:20:47.297Z,16.53
2023-03-15T04:24:53.320Z,17.23
2023-03-15T04:29:17.308Z,17.93
2023-03-15T04:33:41.928Z,14.83
2023-03-15T04:38:07.009Z,16.13
2023-03-15T04:42:48.088Z,20.53
2023-03-15T04:47:26.764Z,22.23
2023-03-15T04:51:45.680Z,21.43
2023-03-15T04:55:53.313Z,22.17
2023-03-15T05:00:07.880Z,15.80
2023-03-15T05:04:14.584Z,15.10
2023-03-15T05:08:33.859Z,25.03
2023-03-15T05:12:54.882Z,19.43
2023-03-15T05:17:17.082Z,19.13
2023-03-15T05:21:26.730Z,17.83
2023-03-15T05:25:58.262Z,19.40
2023-03-15T05:30:19.721Z,20.13
2023-03-15T05:34:43.148Z,20.97
2023-03-15T05:38:57.972Z,21.67
2023-03-15T05:43:18.630Z,18.50
2023-03-15T05:47:40.224Z,15.33
2023-03-15T05:51:47.381Z,13.77
2023-03-15T05:55:59.903Z,23.47
2023-03-15T06:00:26.002Z,15.97
2023-03-15T06:04:32.660Z,25.17
2023-03-15T06:08:37.485Z,14.57
2023-03-15T06:12:39.237Z,21.27
2023-03-15T06:16:39.710Z,18.33
2023-03-15T06:20:42.143Z,17.80
2023-03-15T06:24:49.026Z,18.90
2023-03-15T06:28:49.675Z,16.63
2023-03-15T06:32:50.584Z,18.20
2023-03-15T06:36:52.684Z,21.47
2023-03-15T06:40:56.128Z,21.20
2023-03-15T06:44:56.670Z,19.00
2023-03-15T06:48:57.280Z,19.50
2023-03-15T06:53:00.125Z,20.73
2023-03-15T06:57:04.226Z,16.40
2023-03-15T07:01:05.096Z,18.63
2023-03-15T07:05:05.519Z,17.07
2023-03-15T07:09:09.813Z,19.13
2023-03-15T07:13:12.613Z,15.00
2023-03-15T07:17:13.600Z,14.33
2023-03-15T07:21:14.313Z,20.50
2023-03-15T07:25:14.987Z,15.57
2023-03-15T07:29:18.951Z,15.83
2023-03-15T07:33:22.554Z,17.90
2023-03-15T07:37:23.221Z,16.20
2023-03-15T07:41:23.516Z,14.57
2023-03-15T07:45:42.130Z,16.33
2023-03-15T07:49:42.456Z,11.30
2023-03-15T07:53:43.472Z,16.77
2023-03-15T07:57:45.285Z,16.80
2023-03-15T08:01:51.324Z,15.17
2023-03-15T08:05:53.291Z,14.53
2023-03-15T08:09:54.212Z,14.20
2023-03-15T08:13:55.080Z,12.93
2023-03-15T08:17:59.414Z,12.70
2023-03-15T08:21:59.734Z,9.67
2023-03-15T08:26:00.905Z,10.80
2023-03-15T08:30:01.686Z,11.57
2023-03-15T08:34:05.497Z,14.67
2023-03-15T08:38:06.090Z,11.93
2023-03-15T08:42:07.312Z,12.03
2023-03-15T08:46:08.373Z,12.27
2023-03-15T08:50:15.784Z,12.00
2023-03-15T08:54:16.765Z,15.23
2023-03-15T08:58:17.511Z,9.73
2023-03-15T09:02:18.051Z,10.37
2023-03-15T09:06:21.232Z,9.43
2023-03-15T09:10:22.894Z,10.23
2023-03-15T09:14:24.130Z,12.40
2023-03-15T09:18:25.487Z,12.57
2023-03-15T09:22:38.939Z,11.83
2023-03-15T09:26:40.097Z,11.60
2023-03-15T09:30:43.696Z,14.97
2023-03-15T09:34:44.373Z,7.47
2023-03-15T09:38:49.045Z,7.97
2023-03-15T09:43:18.472Z,11.77
2023-03-15T09:47:35.166Z,8.20
2023-03-15T09:51:48.213Z,8.77
2023-03-15T09:55:54.025Z,9.20
2023-03-15T09:59:58.211Z,10.03
2023-03-15T10:03:59.492Z,10.20
2023-03-15T10:08:00.725Z,8.67
2023-03-15T10:12:08.692Z,6.53
2023-03-15T10:16:33.084Z,5.50
2023-03-15T10:20:39.748Z,10.70
2023-03-15T10:24:50.135Z,16.03
2023-03-15T10:28:54.614Z,7.93
2023-03-15T10:33:01.475Z,8.57
2023-03-15T10:37:01.973Z,10.47
2023-03-15T10:41:03.692Z,9.70
2023-03-15T10:45:23.652Z,9.67
2023-03-15T10:49:23.918Z,6.93
2023-03-15T10:53:25.666Z,11.20
2023-03-15T10:57:36.573Z,9.83
2023-03-15T11:01:39.558Z,6.53
2023-03-15T11:05:47.155Z,7.60
2023-03-15T11:09:55.953Z,10.03
2023-03-15T11:14:03.968Z,10.23
2023-03-15T11:18:09.406Z,10.97
2023-03-15T11:22:16.916Z,9.83
2023-03-15T11:26:32.381Z,13.40
2023-03-15T11:30:34.385Z,15.43
2023-03-15T11:34:57.022Z,14.80
2023-03-15T11:38:58.534Z,25.63
2023-03-15T11:43:12.326Z,10.77
2023-03-15T11:47:23.506Z,16.53
2023-03-15T11:51:27.114Z,11.37
2023-03-15T11:55:30.968Z,10.17
2023-03-15T11:59:35.816Z,10.53
2023-03-15T12:03:44.324Z,11.67
2023-03-15T12:08:21.321Z,9.83
2023-03-15T12:12:41.756Z,10.80
2023-03-15T12:16:48.578Z,10.93
2023-03-15T12:21:00.435Z,11.50
2023-03-15T12:25:19.597Z,8.10
2023-03-15T12:29:26.077Z,9.37
2023-03-15T12:33:28.550Z,15.33
2023-03-15T12:37:42.236Z,13.27
2023-03-15T12:41:48.443Z,11.37
2023-03-15T12:45:50.186Z,10.80
2023-03-15T12:49:50.868Z,6.57
2023-03-15T12:53:56.807Z,10.93
2023-03-15T12:58:05.328Z,12.63
2023-03-15T13:02:42.241Z,13.80
2023-03-15T13:07:17.576Z,9.13
2023-03-15T13:11:30.472Z,13.43
2023-03-15T13:15:43.310Z,5.73
2023-03-15T13:19:48.242Z,6.90
2023-03-15T13:23:54.868Z,5.27
2023-03-15T13:28:02.116Z,8.40
2023-03-15T13:32:19.471Z,5.57
2023-03-15T13:36:23.780Z,5.37
2023-03-15T13:40:24.530Z,7.40
2023-03-15T13:44:28.408Z,7.10
2023-03-15T13:48:35.999Z,6.60
2023-03-15T13:52:37.451Z,6.10
2023-03-15T13:56:49.531Z,4.67
2023-03-15T14:00:52.227Z,5.10
2023-03-15T14:05:07.490Z,6.47
2023-03-15T14:09:22.021Z,3.40
2023-03-15T14:13:28.926Z,2.97
2023-03-15T14:17:33.658Z,3.70
2023-03-15T14:21:36.666Z,4.83
2023-03-15T14:25:39.414Z,5.43
2023-03-15T14:29:48.621Z,3.63
2023-03-15T14:34:00.461Z,3.27
2023-03-15T14:38:18.011Z,3.80
2023-03-15T14:42:18.299Z,2.83
2023-03-15T14:46:18.793Z,6.13
2023-03-15T14:50:23.597Z,5.07
2023-03-15T14:54:28.648Z,3.63
2023-03-15T14:58:30.770Z,5.20
2023-03-15T15:02:33.099Z,4.77
2023-03-15T15:06:38.736Z,6.70
2023-03-15T15:10:45.401Z,3.57
2023-03-15T15:14:46.126Z,5.10
2023-03-15T15:18:46.537Z,5.10
2023-03-15T15:22:47.691Z,3.50
2023-03-15T15:26:51.029Z,3.90
2023-03-15T15:30:53.236Z,5.57
2023-03-15T15:34:54.984Z,4.83
2023-03-15T15:38:55.601Z,7.40
2023-03-15T15:42:59.042Z,5.13
2023-03-15T15:47:01.285Z,3.90
2023-03-15T15:51:01.943Z,5.33
2023-03-15T15:55:04.121Z,3.30
2023-03-15T15:59:15.295Z,4.87
2023-03-15T16:03:19.249Z,3.80
2023-03-15T16:07:22.898Z,6.57
2023-03-15T16:11:26.259Z,4.73
2023-03-15T16:15:31.704Z,4.23
2023-03-15T16:19:32.500Z,3.07
2023-03-15T16:23:33.021Z,5.83
2023-03-15T16:27:33.684Z,6.00
2023-03-15T16:31:36.807Z,6.10
2023-03-15T16:35:39.491Z,6.60
2023-03-15T16:39:41.130Z,6.90
2023-03-15T16:43:41.790Z,5.70
2023-03-15T16:47:45.706Z,5.70
2023-03-15T16:51:53.013Z,6.67
2023-03-15T16:55:53.636Z,5.57
2023-03-15T16:59:54.713Z,7.90
2023-03-15T17:04:00.286Z,9.93
2023-03-15T17:08:03.834Z,15.10
2023-03-15T17:12:05.702Z,15.83
2023-03-15T17:16:09.342Z,12.43
2023-03-15T17:20:22.253Z,9.00
2023-03-15T17:24:24.674Z,13.13
2023-03-15T17:28:27.360Z,11.23
2023-03-15T17:32:30.726Z,13.33
2023-03-15T17:36:42.314Z,11.60
2023-03-15T17:40:46.135Z,11.13
2023-03-15T17:44:49.069Z,11.43
2023-03-15T17:48:52.297Z,12.43
2023-03-15T17:53:00.869Z,10.67
2023-03-15T17:57:06.486Z,12.90
2023-03-15T18:01:09.997Z,5.17
2023-03-15T18:05:19.632Z,4.07
2023-03-15T18:09:26.492Z,2.70
2023-03-15T18:13:27.734Z,5.70
2023-03-15T18:17:27.975Z,6.87
2023-03-15T18:21:30.786Z,7.67
2023-03-15T18:25:36.400Z,13.90
2023-03-15T18:29:36.940Z,19.97
2023-03-15T18:33:38.202Z,21.70
2023-03-15T18:37:38.729Z,34.90
2023-03-15T18:41:42.138Z,42.27
2023-03-15T18:45:42.897Z,17.80
2023-03-15T18:49:43.230Z,7.83
2023-03-15T18:53:46.189Z,6.93
2023-03-15T18:57:52.928Z,8.23
2023-03-15T19:01:55.479Z,9.60
2023-03-15T19:05:59.950Z,19.07
2023-03-15T19:10:03.325Z,16.60
2023-03-15T19:14:09.179Z,15.20
2023-03-15T19:18:10.265Z,13.87
2023-03-15T19:22:10.697Z,10.93
2023-03-15T19:26:11.179Z,12.57
2023-03-15T19:30:21.080Z,16.97
2023-03-15T19:34:22.856Z,15.10
2023-03-15T19:38:23.629Z,14.90
2023-03-15T19:42:23.975Z,11.70
2023-03-15T19:46:27.470Z,14.27
2023-03-15T19:50:31.093Z,15.23
2023-03-15T19:54:34.208Z,17.13
2023-03-15T19:58:35.184Z,14.70
2023-03-15T20:02:38.140Z,15.73
2023-03-15T20:06:39.168Z,19.40
2023-03-15T20:10:39.720Z,16.23
2023-03-15T20:14:41.225Z,14.20
2023-03-15T20:18:44.338Z,19.77
2023-03-15T20:22:48.365Z,20.03
2023-03-15T20:26:48.765Z,23.87
2023-03-15T20:30:49.474Z,30.77
2023-03-15T20:34:57.157Z,34.43
2023-03-15T20:38:57.484Z,33.47
2023-03-15T20:43:00.324Z,29.07
2023-03-15T20:47:02.513Z,23.30
2023-03-15T20:51:10.801Z,17.57
2023-03-15T20:55:15.297Z,39.50
2023-03-15T20:59:17.656Z,37.87
2023-03-15T21:03:21.891Z,22.47
2023-03-15T21:07:27.731Z,17.63
2023-03-15T21:11:31.128Z,22.43
2023-03-15T21:15:33.702Z,18.30
2023-03-15T21:19:34.465Z,25.00
2023-03-15T21:23:38.770Z,25.63
2023-03-15T21:27:39.838Z,19.73
2023-03-15T21:31:40.391Z,17.43
2023-03-15T21:35:40.766Z,21.70
2023-03-15T21:39:43.702Z,26.67
2023-03-15T21:43:44.095Z,26.87
2023-03-15T21:47:47.108Z,31.30
2023-03-15T21:51:48.121Z,31.67
2023-03-15T21:55:53.876Z,34.60
2023-03-15T21:59:54.350Z,48.13
2023-03-15T22:03:56.401Z,40.97
2023-03-15T22:07:56.764Z,30.50
2023-03-15T22:11:59.663Z,45.00
2023-03-15T22:16:01.582Z,41.40
2023-03-15T22:20:02.178Z,39.60
2023-03-15T22:24:02.608Z,37.87
2023-03-15T22:28:05.384Z,34.77
2023-03-15T22:32:05.646Z,31.93
2023-03-15T22:36:06.780Z,38.47
2023-03-15T22:40:08.332Z,29.00
2023-03-15T22:44:11.300Z,28.73
2023-03-15T22:48:11.619Z,27.77
2023-03-15T22:52:12.537Z,30.73
2023-03-15T22:56:14.585Z,24.53
2023-03-15T23:00:25.528Z,24.33
2023-03-15T23:04:29.020Z,35.13
2023-03-15T23:08:31.736Z,31.57
2023-03-15T23:12:36.587Z,58.40
2023-03-15T23:16:42.877Z,123.77
2023-03-15T23:20:46.407Z,23.00
2023-03-15T23:24:48.136Z,24.63
2023-03-15T23:28:48.487Z,21.23
2023-03-15T23:32:58.055Z,18.87
2023-03-15T23:36:59.000Z,21.53
2023-03-15T23:41:01.822Z,24.53
2023-03-15T23:45:02.053Z,17.57
2023-03-15T23:49:05.828Z,16.27
2023-03-15T23:53:06.024Z,27.30
2023-03-15T23:57:06.565Z,22.77
